Time;durP1;ratioP1;P1;durP2;ratioP2;P2;SDS_P1;SDS_P2;PMS_P1;PMS_P2;Temp;Humidity;BMP_temperature;BMP_pressure;BME280_temperature;BME280_humidity;BME280_pressure;Samples;Min_cycle;Max_cycle;Signal;HPM_P1;HPM_P2
2023/08/16 00:00:55;;;;;;;21.90;10.20;;;;;;;21.28;62.06;101613.05;107037;1257;109100;-67
2023/08/16 00:03:34;;;;;;;33.70;11.10;;;;;;;21.29;62.21;101611.80;107053;1257;108592;-68
2023/08/16 00:06:10;;;;;;;23.30;10.20;;;;;;;21.29;62.24;101616.02;107074;1257;96497;-68
2023/08/16 00:08:39;;;;;;;22.20;10.00;;;;;;;21.26;62.34;101611.55;107098;1257;96350;-67
2023/08/16 00:11:09;;;;;;;22.00;11.10;;;;;;;21.25;62.43;101612.34;107102;1257;109895;-68
2023/08/16 00:13:38;;;;;;;24.70;11.00;;;;;;;21.25;62.58;101615.48;107075;1258;109699;-67
2023/08/16 00:16:06;;;;;;;26.20;10.80;;;;;;;21.24;62.60;101620.84;107065;1257;107648;-67
2023/08/16 00:18:34;;;;;;;18.10;9.90;;;;;;;21.25;62.70;101621.55;107085;1263;96462;-68
2023/08/16 00:21:03;;;;;;;20.50;10.70;;;;;;;21.26;62.67;101620.89;107070;1257;96374;-68
2023/08/16 00:23:32;;;;;;;26.80;10.70;;;;;;;21.26;62.50;101626.36;107109;1257;110676;-66
2023/08/16 00:26:01;;;;;;;29.10;11.00;;;;;;;21.26;62.68;101630.50;107107;1257;109394;-68
2023/08/16 00:28:29;;;;;;;29.10;11.10;;;;;;;21.27;62.89;101631.02;107036;1257;108212;-68
2023/08/16 00:30:58;;;;;;;25.70;11.20;;;;;;;21.27;62.87;101629.50;107029;1257;96466;-68
2023/08/16 00:33:26;;;;;;;30.60;10.20;;;;;;;21.27;62.80;101626.63;106979;1257;96391;-68
2023/08/16 00:35:54;;;;;;;24.80;9.80;;;;;;;21.24;63.21;101627.81;106967;1257;109330;-68
2023/08/16 00:38:22;;;;;;;23.30;9.80;;;;;;;21.22;63.42;101627.98;107098;1258;108761;-66
2023/08/16 00:40:51;;;;;;;20.40;10.10;;;;;;;21.20;63.22;101629.05;107049;1258;107605;-66
2023/08/16 00:43:19;;;;;;;31.50;9.00;;;;;;;21.19;63.17;101630.98;107111;1258;96495;-67
2023/08/16 00:45:49;;;;;;;24.30;10.20;;;;;;;21.21;63.30;101627.17;107110;1257;97100;-66
2023/08/16 00:48:18;;;;;;;20.10;9.30;;;;;;;21.22;63.20;101630.30;107129;1257;110114;-66
2023/08/16 00:50:47;;;;;;;27.90;11.50;;;;;;;21.22;63.17;101633.92;107106;1258;109013;-66
2023/08/16 00:53:18;;;;;;;27.80;10.00;;;;;;;21.23;63.25;101634.16;107088;1257;108178;-67
2023/08/16 00:55:47;;;;;;;23.70;10.00;;;;;;;21.23;63.23;101636.25;107103;1257;96502;-67
2023/08/16 00:58:16;;;;;;;25.10;10.00;;;;;;;21.21;63.27;101636.23;107085;1257;96573;-66
2023/08/16 01:00:44;;;;;;;24.90;9.80;;;;;;;21.18;63.46;101636.39;107094;1257;110467;-67
2023/08/16 01:03:12;;;;;;;25.60;10.90;;;;;;;21.17;63.43;101640.44;107097;1263;109251;-67
2023/08/16 01:05:41;;;;;;;25.20;9.30;;;;;;;21.17;63.55;101642.77;107080;1257;107848;-67
2023/08/16 01:08:09;;;;;;;19.20;9.70;;;;;;;21.18;63.52;101646.24;107064;1262;96532;-67
2023/08/16 01:10:59;;;;;;;22.90;9.00;;;;;;;21.19;63.61;101654.13;106960;1257;96351;-68
2023/08/16 01:13:35;;;;;;;20.30;9.40;;;;;;;21.19;63.56;101654.75;107126;1257;108410;-68
2023/08/16 01:16:10;;;;;;;20.60;8.90;;;;;;;21.16;63.81;101648.35;107075;1257;109328;-68
2023/08/16 01:18:41;;;;;;;28.10;9.30;;;;;;;21.13;63.89;101646.99;107086;1257;107325;-67
2023/08/16 01:21:13;;;;;;;22.50;9.10;;;;;;;21.13;64.02;101644.73;107048;1257;96477;-67
2023/08/16 01:24:14;;;;;;;20.80;9.80;;;;;;;21.10;63.96;101649.02;107019;1257;97062;-67
2023/08/16 01:26:43;;;;;;;16.90;9.00;;;;;;;21.08;64.03;101649.69;106973;1257;110072;-67
2023/08/16 01:29:12;;;;;;;20.90;9.30;;;;;;;21.07;64.07;101649.38;107113;1257;109727;-67
2023/08/16 01:31:40;;;;;;;24.60;9.80;;;;;;;21.05;64.36;101648.34;106978;1263;108128;-67
2023/08/16 01:34:08;;;;;;;21.90;11.20;;;;;;;21.02;64.23;101641.09;107045;1257;96489;-67
2023/08/16 01:36:36;;;;;;;25.40;12.40;;;;;;;21.01;64.21;101639.52;107094;1258;97040;-66
2023/08/16 01:39:05;;;;;;;25.10;11.00;;;;;;;21.00;64.38;101635.63;107112;1257;110903;-67
2023/08/16 01:41:45;;;;;;;28.50;11.20;;;;;;;20.98;64.41;101638.66;107119;1257;109716;-67
2023/08/16 01:44:18;;;;;;;31.40;12.10;;;;;;;20.98;64.37;101635.92;107069;1261;108330;-67
2023/08/16 01:46:50;;;;;;;22.10;10.70;;;;;;;20.96;64.56;101631.52;107072;1257;96464;-67
2023/08/16 01:49:20;;;;;;;31.90;11.30;;;;;;;20.93;65.19;101618.42;107007;1257;96543;-67
2023/08/16 01:51:48;;;;;;;23.10;10.00;;;;;;;20.87;66.40;101596.54;107093;1257;109603;-67
2023/08/16 01:54:17;;;;;;;25.30;10.20;;;;;;;20.76;66.88;101573.73;107106;1257;109318;-68
2023/08/16 01:56:45;;;;;;;27.00;9.30;;;;;;;20.64;67.13;101544.17;107026;1259;107923;-68
2023/08/16 01:59:13;;;;;;;22.90;8.70;;;;;;;20.56;66.74;101534.20;106915;1257;96497;-67
2023/08/16 02:01:41;;;;;;;25.80;8.60;;;;;;;20.55;66.48;101540.75;107146;1257;96523;-67
2023/08/16 02:04:09;;;;;;;19.60;6.60;;;;;;;20.58;66.61;101559.54;107130;1257;109105;-67
2023/08/16 02:06:38;;;;;;;15.50;6.70;;;;;;;20.63;66.00;101570.59;106954;1257;109264;-67
2023/08/16 02:09:06;;;;;;;12.10;5.10;;;;;;;20.71;64.56;101568.20;107090;1257;107241;-67
2023/08/16 02:11:34;;;;;;;21.90;6.20;;;;;;;20.78;64.17;101554.77;107096;1257;96527;-66
2023/08/16 02:14:03;;;;;;;12.70;5.10;;;;;;;20.87;63.73;101561.56;107025;1257;96387;-67
2023/08/16 02:16:31;;;;;;;13.70;4.90;;;;;;;20.93;63.46;101567.36;107014;1257;108749;-66
2023/08/16 02:18:59;;;;;;;12.10;5.20;;;;;;;20.97;63.22;101570.86;107015;1257;109328;-67
2023/08/16 02:21:28;;;;;;;13.80;5.10;;;;;;;21.03;62.83;101569.86;107091;1258;108283;-68
2023/08/16 02:23:56;;;;;;;15.90;5.50;;;;;;;21.08;62.48;101566.52;106950;1258;96518;-68
2023/08/16 02:26:24;;;;;;;12.00;4.90;;;;;;;21.12;62.31;101567.68;107109;1257;96466;-68
2023/08/16 02:28:52;;;;;;;15.30;5.90;;;;;;;21.16;62.05;101567.36;107114;1257;110608;-68
2023/08/16 02:31:23;;;;;;;17.00;5.00;;;;;;;21.19;61.88;101566.83;106960;1257;109429;-67
2023/08/16 02:33:52;;;;;;;17.40;5.60;;;;;;;21.23;61.75;101568.02;107094;1257;107807;-66
2023/08/16 02:36:20;;;;;;;13.60;6.10;;;;;;;21.25;61.48;101573.53;107090;1257;96491;-68
2023/08/16 02:38:48;;;;;;;19.00;6.20;;;;;;;21.27;61.16;101576.76;107125;1257;96394;-67
2023/08/16 02:41:17;;;;;;;13.10;5.90;;;;;;;21.29;60.95;101577.79;107125;1257;111057;-68
2023/08/16 02:43:46;;;;;;;15.60;5.80;;;;;;;21.31;60.95;101580.99;107111;1257;109893;-68
2023/08/16 02:46:15;;;;;;;10.40;5.70;;;;;;;21.34;60.85;101587.33;107101;1257;107406;-68
2023/08/16 02:48:43;;;;;;;11.30;5.80;;;;;;;21.36;60.69;101588.88;106935;1259;96474;-68
2023/08/16 02:51:12;;;;;;;19.20;6.20;;;;;;;21.37;60.78;101587.95;107071;1257;96542;-67
2023/08/16 02:53:40;;;;;;;11.90;5.80;;;;;;;21.39;60.86;101592.16;107101;1257;109951;-67
2023/08/16 02:56:08;;;;;;;15.00;5.80;;;;;;;21.39;60.80;101596.33;107088;1258;109525;-67
2023/08/16 02:58:36;;;;;;;14.80;5.70;;;;;;;21.39;60.80;101599.44;106987;1257;107304;-67
2023/08/16 03:01:05;;;;;;;18.70;6.80;;;;;;;21.39;60.71;101602.86;106997;1257;96480;-68
2023/08/16 03:03:33;;;;;;;17.30;5.50;;;;;;;21.40;60.85;101602.71;107100;1257;98157;-67
2023/08/16 03:06:01;;;;;;;14.60;6.30;;;;;;;21.42;60.99;101599.21;107107;1257;109354;-67
2023/08/16 03:08:31;;;;;;;12.10;6.60;;;;;;;21.42;61.26;101596.63;107083;1261;110560;-67
2023/08/16 03:10:59;;;;;;;14.30;6.70;;;;;;;21.40;61.47;101594.75;107070;1257;108102;-68
2023/08/16 03:13:27;;;;;;;13.70;6.80;;;;;;;21.39;61.66;101597.08;107080;1257;96479;-68
2023/08/16 03:15:55;;;;;;;21.60;7.00;;;;;;;21.38;61.81;101594.47;107089;1261;96381;-66
2023/08/16 03:18:23;;;;;;;15.60;6.20;;;;;;;21.38;62.01;101596.25;106972;1264;109524;-64
2023/08/16 03:20:52;;;;;;;23.50;6.40;;;;;;;21.38;62.17;101601.92;107101;1262;110137;-66
2023/08/16 03:23:21;;;;;;;12.80;8.10;;;;;;;21.39;62.26;101602.35;107058;1257;107740;-66
2023/08/16 03:25:49;;;;;;;20.10;6.50;;;;;;;21.40;62.36;101606.03;107064;1257;96605;-67
2023/08/16 03:28:18;;;;;;;26.30;6.90;;;;;;;21.43;62.25;101612.02;106985;1263;96397;-66
2023/08/16 03:30:46;;;;;;;18.80;6.60;;;;;;;21.47;62.57;101612.11;107120;1257;109404;-66
2023/08/16 03:33:14;;;;;;;15.00;5.90;;;;;;;21.50;62.59;101620.30;107072;1257;109405;-68
2023/08/16 03:35:43;;;;;;;9.60;5.90;;;;;;;21.54;62.64;101617.61;106933;1257;108090;-69
2023/08/16 03:38:11;;;;;;;22.20;7.80;;;;;;;21.57;62.69;101619.42;106966;1257;96505;-69
2023/08/16 03:40:40;;;;;;;24.70;6.00;;;;;;;21.57;62.69;101623.05;107137;1257;96487;-69
2023/08/16 03:43:08;;;;;;;16.20;6.60;;;;;;;21.58;62.56;101626.66;107098;1257;109784;-69
2023/08/16 03:45:36;;;;;;;18.50;7.20;;;;;;;21.60;62.90;101629.98;106971;1257;109712;-69
2023/08/16 03:48:06;;;;;;;18.30;8.50;;;;;;;21.58;62.35;101627.38;107085;1257;108183;-68
2023/08/16 03:50:34;;;;;;;17.60;6.00;;;;;;;21.62;62.00;101632.65;107051;1257;96581;-68
2023/08/16 03:53:03;;;;;;;16.70;6.60;;;;;;;21.68;62.01;101639.15;106966;1258;96508;-68
2023/08/16 03:55:31;;;;;;;12.30;6.20;;;;;;;21.71;61.66;101632.71;107062;1257;109877;-69
2023/08/16 03:57:59;;;;;;;20.80;7.00;;;;;;;21.74;61.28;101629.33;107095;1257;110071;-69
2023/08/16 04:00:27;;;;;;;10.80;5.90;;;;;;;21.77;60.90;101625.84;106945;1257;107437;-70
2023/08/16 04:02:58;;;;;;;15.20;6.00;;;;;;;21.76;60.69;101630.50;107115;1257;96470;-70
2023/08/16 04:05:26;;;;;;;22.00;7.20;;;;;;;21.77;60.58;101625.84;107002;1258;96495;-69
2023/08/16 04:07:55;;;;;;;24.90;7.90;;;;;;;21.82;60.98;101629.52;107116;1257;110801;-69
2023/08/16 04:10:23;;;;;;;17.80;6.30;;;;;;;21.86;60.91;101630.68;107112;1257;109192;-67
2023/08/16 04:12:51;;;;;;;22.20;6.70;;;;;;;21.88;61.47;101633.60;107039;1259;107587;-69
2023/08/16 04:15:22;;;;;;;20.20;6.50;;;;;;;21.87;61.97;101633.05;107006;1257;96601;-69
2023/08/16 04:17:51;;;;;;;25.50;7.10;;;;;;;21.85;63.18;101637.98;107113;1257;97005;-69
2023/08/16 04:20:20;;;;;;;13.20;6.40;;;;;;;21.81;63.16;101636.09;107104;1257;110557;-68
2023/08/16 04:22:48;;;;;;;17.90;6.30;;;;;;;21.81;62.79;101641.06;107127;1257;108041;-69
2023/08/16 04:25:17;;;;;;;18.90;6.90;;;;;;;21.84;62.82;101646.31;107097;1261;108447;-69
2023/08/16 04:27:46;;;;;;;21.10;7.30;;;;;;;21.87;62.85;101649.19;107109;1257;96477;-68
2023/08/16 04:30:14;;;;;;;19.80;6.80;;;;;;;21.91;62.40;101650.59;106953;1257;96636;-66
2023/08/16 04:32:42;;;;;;;19.40;6.30;;;;;;;21.96;62.25;101653.16;106997;1257;110814;-67
2023/08/16 04:35:12;;;;;;;25.40;7.50;;;;;;;22.05;62.85;101654.52;107096;1258;109045;-67
2023/08/16 04:37:40;;;;;;;20.60;6.50;;;;;;;22.11;62.37;101657.33;106998;1257;108134;-68
2023/08/16 04:40:11;;;;;;;21.30;6.70;;;;;;;22.15;62.44;101661.68;106983;1257;96891;-69
2023/08/16 04:42:39;;;;;;;21.30;6.90;;;;;;;22.21;62.58;101661.34;107134;1257;96504;-68
2023/08/16 04:45:08;;;;;;;88.90;10.40;;;;;;;22.27;62.55;101663.38;107151;1257;109561;-68
2023/08/16 04:47:37;;;;;;;91.80;10.40;;;;;;;22.32;62.26;101672.80;106946;1258;110093;-68
2023/08/16 04:50:06;;;;;;;24.80;6.50;;;;;;;22.35;62.17;101674.91;107073;1257;108360;-68
2023/08/16 04:52:37;;;;;;;20.80;6.60;;;;;;;22.43;61.86;101683.54;107085;1257;96476;-67
2023/08/16 04:55:07;;;;;;;26.00;9.10;;;;;;;22.49;61.85;101683.49;107137;1257;97024;-68
2023/08/16 04:57:37;;;;;;;31.80;11.80;;;;;;;22.52;61.52;101686.73;107147;1257;110061;-66
2023/08/16 05:00:10;;;;;;;17.60;7.70;;;;;;;22.56;61.42;101685.98;107000;1263;109697;-69
2023/08/16 05:02:47;;;;;;;23.20;6.80;;;;;;;22.57;61.29;101690.03;106918;1258;108441;-67
2023/08/16 05:05:15;;;;;;;21.90;7.00;;;;;;;22.60;61.32;101687.76;107100;1257;96467;-67
2023/08/16 05:07:44;;;;;;;18.80;7.00;;;;;;;22.65;61.24;101685.15;107175;1257;97052;-67
2023/08/16 05:10:14;;;;;;;14.80;6.40;;;;;;;22.62;60.52;101675.48;107150;1257;110424;-67
2023/08/16 05:12:42;;;;;;;22.80;7.10;;;;;;;22.61;60.35;101674.98;107145;1257;108381;-67
2023/08/16 05:15:12;;;;;;;27.90;6.30;;;;;;;22.65;59.94;101669.05;107106;1258;107966;-67
2023/08/16 05:17:40;;;;;;;23.80;7.20;;;;;;;22.70;60.02;101675.07;106970;1257;96371;-67
2023/08/16 05:20:10;;;;;;;18.90;7.00;;;;;;;22.76;59.81;101677.47;107066;1257;97054;-67
2023/08/16 05:22:39;;;;;;;24.40;7.70;;;;;;;22.84;60.09;101681.98;107160;1257;109993;-68
2023/08/16 05:25:07;;;;;;;20.50;7.30;;;;;;;22.87;59.72;101696.39;107114;1257;110175;-67
2023/08/16 05:27:36;;;;;;;20.30;6.50;;;;;;;22.93;59.42;101697.34;107088;1261;109279;-67
2023/08/16 05:30:05;;;;;;;20.20;8.10;;;;;;;23.05;59.26;101698.24;107070;1257;96379;-66
2023/08/16 05:32:33;;;;;;;17.50;7.60;;;;;;;23.18;58.99;101708.05;107123;1257;96518;-68
2023/08/16 05:35:01;;;;;;;29.80;7.70;;;;;;;23.31;58.43;101710.96;107018;1257;109553;-66
2023/08/16 05:37:30;;;;;;;26.90;8.90;;;;;;;23.45;57.97;101708.80;107089;1258;109687;-66
2023/08/16 05:39:58;;;;;;;27.30;8.70;;;;;;;23.60;57.67;101714.09;106974;1261;108328;-67
2023/08/16 05:42:28;;;;;;;29.30;8.20;;;;;;;23.73;57.46;101715.26;107133;1257;96559;-68
2023/08/16 05:44:57;;;;;;;25.10;8.50;;;;;;;23.86;57.69;101716.52;107124;1257;96481;-67
2023/08/16 05:47:25;;;;;;;17.90;8.20;;;;;;;24.00;57.44;101721.15;107164;1257;109256;-68
2023/08/16 05:49:54;;;;;;;27.70;8.70;;;;;;;24.14;57.35;101719.99;107138;1257;109375;-68
2023/08/16 05:52:23;;;;;;;27.90;8.90;;;;;;;24.29;56.58;101722.11;107121;1257;108173;-68
2023/08/16 05:54:52;;;;;;;21.70;9.10;;;;;;;24.44;56.13;101721.73;107109;1257;96476;-67
2023/08/16 05:57:20;;;;;;;36.90;9.20;;;;;;;24.60;56.13;101716.37;107093;1256;96373;-66
2023/08/16 05:59:48;;;;;;;24.90;9.30;;;;;;;24.76;56.02;101718.65;107080;1257;110440;-68
2023/08/16 06:02:17;;;;;;;18.60;9.00;;;;;;;24.90;55.92;101719.83;107134;1256;109710;-66
2023/08/16 06:04:45;;;;;;;32.80;9.30;;;;;;;25.02;55.71;101721.36;107111;1257;108415;-67
2023/08/16 06:07:13;;;;;;;24.40;8.60;;;;;;;25.13;55.62;101724.85;107124;1257;96479;-68
2023/08/16 06:09:41;;;;;;;28.80;9.20;;;;;;;25.24;55.58;101724.77;107105;1257;96361;-68
2023/08/16 06:12:12;;;;;;;26.70;7.90;;;;;;;25.36;55.31;101727.58;107093;1257;110829;-67
2023/08/16 06:14:40;;;;;;;23.10;8.90;;;;;;;25.47;55.11;101721.67;107120;1256;108333;-68
2023/08/16 06:17:08;;;;;;;22.20;5.80;;;;;;;25.62;54.94;101720.21;107086;1257;108192;-67
2023/08/16 06:19:37;;;;;;;21.90;6.70;;;;;;;25.74;53.84;101719.98;107092;1257;96473;-67
2023/08/16 06:22:05;;;;;;;20.80;6.30;;;;;;;25.83;52.98;101719.58;107120;1257;96396;-68
2023/08/16 06:24:37;;;;;;;19.90;6.30;;;;;;;25.92;52.84;101717.99;107122;1257;109368;-68
2023/08/16 06:27:08;;;;;;;24.50;6.70;;;;;;;26.01;52.85;101717.55;107116;1257;108871;-68
2023/08/16 06:29:36;;;;;;;25.90;6.80;;;;;;;26.07;52.77;101718.65;106976;1258;107626;-68
2023/08/16 06:32:06;;;;;;;35.00;8.00;;;;;;;26.16;52.55;101721.02;107074;1258;96495;-67
2023/08/16 06:34:34;;;;;;;26.40;8.30;;;;;;;26.21;51.97;101724.93;107093;1257;96504;-68
2023/08/16 06:37:03;;;;;;;26.80;8.90;;;;;;;26.23;51.71;101724.16;107093;1257;110442;-68
2023/08/16 06:39:31;;;;;;;56.90;10.80;;;;;;;26.27;51.55;101725.96;107148;1257;110883;-68
2023/08/16 06:41:59;;;;;;;52.40;11.10;;;;;;;26.34;51.61;101726.70;107085;1257;107777;-67
2023/08/16 06:44:27;;;;;;;39.90;8.00;;;;;;;26.43;51.49;101723.52;107114;1256;96483;-67
2023/08/16 06:46:56;;;;;;;31.70;6.80;;;;;;;26.52;51.27;101722.08;107117;1257;97114;-68
2023/08/16 06:49:24;;;;;;;25.90;7.40;;;;;;;26.61;50.99;101726.63;107131;1256;109732;-68
2023/08/16 06:51:54;;;;;;;20.70;6.00;;;;;;;26.67;50.97;101726.16;107170;1256;108969;-69
2023/08/16 06:54:22;;;;;;;22.00;5.50;;;;;;;26.75;50.82;101728.42;106808;1257;432565;-67
2023/08/16 06:56:52;;;;;;;21.60;6.10;;;;;;;26.82;50.59;101726.58;107135;1256;96467;-67
2023/08/16 06:59:20;;;;;;;22.20;7.70;;;;;;;26.87;50.00;101723.91;107153;1256;96476;-67
2023/08/16 07:01:48;;;;;;;24.60;6.60;;;;;;;26.91;50.02;101725.23;107112;1261;109825;-67
2023/08/16 07:04:16;;;;;;;22.60;6.00;;;;;;;26.99;49.34;101727.23;106990;1258;109455;-67
2023/08/16 07:06:45;;;;;;;21.30;5.30;;;;;;;27.00;49.44;101722.85;107116;1258;108356;-67
2023/08/16 07:09:13;;;;;;;26.10;5.90;;;;;;;27.05;49.62;101722.68;107088;1257;96471;-68
2023/08/16 07:11:41;;;;;;;21.90;5.80;;;;;;;27.12;49.91;101718.13;107169;1257;96475;-68
2023/08/16 07:14:09;;;;;;;23.00;6.30;;;;;;;27.24;49.80;101716.02;107155;1256;109788;-68
2023/08/16 07:16:39;;;;;;;24.10;5.40;;;;;;;27.36;49.50;101713.05;107123;1256;109695;-67
2023/08/16 07:19:08;;;;;;;33.80;6.10;;;;;;;27.47;49.14;101713.16;107178;1257;108763;-67
2023/08/16 07:21:36;;;;;;;19.80;5.20;;;;;;;27.58;48.76;101713.46;107083;1258;96476;-68
2023/08/16 07:24:06;;;;;;;12.40;4.70;;;;;;;27.68;48.33;101710.77;107173;1257;96488;-68
2023/08/16 07:26:34;;;;;;;20.90;5.70;;;;;;;27.77;47.86;101714.17;107175;1257;110787;-67
2023/08/16 07:29:03;;;;;;;22.10;5.10;;;;;;;27.86;47.49;101713.45;107116;1256;109112;-67
2023/08/16 07:31:31;;;;;;;17.20;5.60;;;;;;;27.94;47.26;101714.76;107094;1257;107083;-67
2023/08/16 07:33:59;;;;;;;19.90;5.00;;;;;;;28.03;46.73;101712.29;107078;1257;96447;-70
2023/08/16 07:36:28;;;;;;;13.20;5.90;;;;;;;28.10;46.09;101711.92;107087;1258;96353;-67
2023/08/16 07:38:58;;;;;;;21.40;5.70;;;;;;;28.17;45.83;101708.26;106955;1258;110527;-68
2023/08/16 07:41:27;;;;;;;15.50;5.00;;;;;;;28.25;45.72;101708.08;107004;1257;109384;-68
2023/08/16 07:43:55;;;;;;;16.80;5.30;;;;;;;28.33;45.62;101707.42;107104;1257;108375;-70
2023/08/16 07:46:24;;;;;;;14.50;5.40;;;;;;;28.41;45.53;101708.55;107092;1257;96558;-69
2023/08/16 07:48:52;;;;;;;17.60;4.90;;;;;;;28.48;45.22;101705.13;107113;1257;98111;-69
2023/08/16 07:51:21;;;;;;;13.70;5.60;;;;;;;28.56;45.19;101703.98;107077;1257;109935;-67
2023/08/16 07:53:49;;;;;;;27.40;5.50;;;;;;;28.65;44.62;101698.70;107046;1258;109300;-68
2023/08/16 07:56:17;;;;;;;21.20;5.00;;;;;;;28.75;44.02;101699.36;106996;1258;108141;-68
2023/08/16 07:58:45;;;;;;;13.80;4.90;;;;;;;28.85;43.78;101698.02;107065;1257;96486;-67
2023/08/16 08:01:13;;;;;;;16.30;4.80;;;;;;;28.96;43.41;101698.67;107086;1257;96499;-69
2023/08/16 08:03:42;;;;;;;19.90;4.50;;;;;;;29.06;42.26;101699.83;107062;1257;110399;-68
2023/08/16 08:06:10;;;;;;;14.20;4.60;;;;;;;29.13;42.71;101699.59;107112;1257;109243;-68
2023/08/16 08:08:38;;;;;;;14.40;5.00;;;;;;;29.26;43.04;101702.11;106973;1258;108637;-68
2023/08/16 08:11:09;;;;;;;11.70;4.40;;;;;;;29.39;42.66;101702.22;107053;1257;96634;-66
2023/08/16 08:13:38;;;;;;;16.50;5.70;;;;;;;29.49;42.09;101697.60;107077;1257;96551;-68
2023/08/16 08:16:07;;;;;;;18.90;4.10;;;;;;;29.63;41.90;101697.52;107123;1257;111896;-67
2023/08/16 08:18:35;;;;;;;12.90;4.20;;;;;;;29.75;41.11;101698.62;107144;1257;109976;-66
2023/08/16 08:21:04;;;;;;;19.50;4.70;;;;;;;29.81;40.75;101694.60;107079;1257;107783;-67
2023/08/16 08:23:32;;;;;;;13.60;4.30;;;;;;;29.91;41.18;101695.20;107069;1257;97001;-64
2023/08/16 08:26:00;;;;;;;19.20;5.30;;;;;;;30.04;40.15;101696.23;107051;1257;96481;-67
2023/08/16 08:28:29;;;;;;;10.00;4.20;;;;;;;30.13;40.06;101686.83;107094;1258;110396;-67
2023/08/16 08:30:57;;;;;;;16.80;4.20;;;;;;;30.24;40.17;101682.65;107079;1257;109301;-68
2023/08/16 08:33:26;;;;;;;12.30;4.10;;;;;;;30.37;39.27;101680.80;107053;1257;109241;-67
2023/08/16 08:35:56;;;;;;;15.80;3.90;;;;;;;30.48;39.88;101679.96;107084;1257;96551;-66
2023/08/16 08:38:24;;;;;;;13.90;4.30;;;;;;;30.63;39.45;101681.44;107094;1257;97127;-67
2023/08/16 08:40:59;;;;;;;15.50;3.70;;;;;;;30.79;39.15;101678.98;107111;1257;110839;-65
2023/08/16 08:43:37;;;;;;;9.70;3.30;;;;;;;30.94;39.06;101674.42;107082;1257;108493;-66
2023/08/16 08:46:28;;;;;;;7.80;3.20;;;;;;;31.13;38.60;101677.36;106954;1257;109367;-66
2023/08/16 08:49:00;;;;;;;15.80;3.20;;;;;;;31.31;38.08;101671.30;107084;1257;96612;-67
2023/08/16 08:51:30;;;;;;;;;;;;;;;31.46;38.02;101664.59;107151;1261;96462;-66
2023/08/16 08:53:59;;;;;;;32.50;4.40;;;;;;;31.68;37.94;101659.91;107068;1257;110719;-67
2023/08/16 08:56:28;;;;;;;24.50;3.70;;;;;;;31.85;37.28;101657.81;107027;1257;110186;-67
2023/08/16 08:59:01;;;;;;;7.10;2.90;;;;;;;31.97;36.63;101652.45;107039;1257;107270;-66
2023/08/16 09:01:45;;;;;;;14.00;3.00;;;;;;;32.07;35.80;101648.83;107062;1257;96467;-66
2023/08/16 09:04:15;;;;;;;10.60;3.50;;;;;;;32.11;35.56;101646.66;107115;1257;96358;-67
2023/08/16 09:06:44;;;;;;;8.80;3.20;;;;;;;32.25;35.84;101646.67;107089;1258;108052;-67
2023/08/16 09:09:14;;;;;;;9.30;3.80;;;;;;;32.42;35.93;101646.63;107077;1257;109456;-68
2023/08/16 09:11:42;;;;;;;14.80;3.30;;;;;;;32.67;35.20;101643.08;107101;1257;107524;-68
2023/08/16 09:14:10;;;;;;;11.00;3.20;;;;;;;32.90;35.05;101644.75;107046;1257;96504;-67
2023/08/16 09:16:39;;;;;;;6.50;3.20;;;;;;;33.14;34.17;101639.75;107101;1257;96563;-71
2023/08/16 09:19:15;;;;;;;8.10;3.40;;;;;;;33.38;33.51;101638.88;107083;1257;110801;-68
2023/08/16 09:21:43;;;;;;;7.60;2.70;;;;;;;33.68;33.89;101636.52;107086;1257;110113;-68
2023/08/16 09:24:12;;;;;;;10.50;2.60;;;;;;;34.02;33.75;101632.66;107075;1258;108215;-68
2023/08/16 09:26:44;;;;;;;8.30;2.80;;;;;;;34.34;32.75;101625.54;107082;1257;96588;-68
2023/08/16 09:29:12;;;;;;;9.50;3.40;;;;;;;34.61;31.77;101630.84;107056;1257;96559;-68
2023/08/16 09:31:43;;;;;;;17.80;3.50;;;;;;;34.81;31.49;101623.36;107087;1257;110033;-68
2023/08/16 09:34:13;;;;;;;7.80;3.00;;;;;;;35.09;30.88;101619.90;107149;1257;109048;-68
2023/08/16 09:36:45;;;;;;;10.10;3.20;;;;;;;35.42;30.31;101618.21;107011;1257;108564;-67
2023/08/16 09:39:13;;;;;;;12.10;2.80;;;;;;;35.88;29.70;101613.86;106939;1257;96484;-67
2023/08/16 09:41:51;;;;;;;9.80;2.40;;;;;;;36.33;27.99;101607.11;107091;1257;96490;-68
2023/08/16 09:44:20;;;;;;;9.60;2.80;;;;;;;36.75;28.07;101609.47;107102;1257;110854;-68
2023/08/16 09:46:48;;;;;;;7.40;2.80;;;;;;;37.30;28.52;101605.82;107081;1258;108826;-68
2023/08/16 09:49:25;;;;;;;6.70;2.20;;;;;;;37.94;27.62;101606.06;107049;1257;107847;-68
2023/08/16 09:51:53;;;;;;;14.20;2.80;;;;;;;38.47;27.50;101604.61;107068;1257;96459;-69
2023/08/16 09:54:24;;;;;;;12.60;2.00;;;;;;;39.04;26.16;101601.33;107055;1257;96501;-69
2023/08/16 09:56:54;;;;;;;4.70;2.30;;;;;;;39.49;25.16;101593.54;107052;1257;109740;-68
2023/08/16 09:59:26;;;;;;;7.20;2.40;;;;;;;39.84;23.63;101589.33;107097;1257;110387;-70
2023/08/16 10:01:58;;;;;;;13.70;2.90;;;;;;;39.95;23.74;101586.44;107002;1257;107796;-67
2023/08/16 10:04:31;;;;;;;;;;;;;;;40.15;23.42;101584.61;107102;1257;96374;-68
2023/08/16 10:07:05;;;;;;;9.80;2.70;;;;;;;40.32;23.37;101586.48;107047;1259;96364;-67
2023/08/16 10:09:38;;;;;;;4.20;2.30;;;;;;;40.41;22.72;101578.52;107024;1258;110183;-68
2023/08/16 10:12:09;;;;;;;4.80;2.00;;;;;;;40.35;23.29;101580.13;107073;1261;108736;-68
2023/08/16 10:14:38;;;;;;;8.20;2.60;;;;;;;40.60;22.10;101577.66;107043;1257;107560;-67
2023/08/16 10:17:08;;;;;;;5.20;2.20;;;;;;;40.57;22.28;101575.41;107050;1257;96470;-67
2023/08/16 10:19:41;;;;;;;5.10;2.00;;;;;;;40.78;22.46;101572.55;107078;1257;98284;-68
2023/08/16 10:22:23;;;;;;;7.50;2.20;;;;;;;41.07;22.59;101568.96;106988;1258;110391;-67
2023/08/16 10:25:12;;;;;;;8.50;3.30;;;;;;;41.49;21.80;101564.34;107025;1257;110497;-66
2023/08/16 10:27:44;;;;;;;16.90;2.70;;;;;;;41.55;21.91;101564.06;107029;1257;108633;-67
2023/08/16 10:30:24;;;;;;;4.10;1.90;;;;;;;41.95;21.32;101562.48;107091;1257;96468;-68
2023/08/16 10:33:17;;;;;;;10.50;2.20;;;;;;;42.07;20.75;101559.48;107052;1257;96367;-66
2023/08/16 10:35:48;;;;;;;6.80;2.80;;;;;;;42.32;20.56;101557.27;107051;1257;109844;-67
2023/08/16 10:38:19;;;;;;;10.10;6.20;;;;;;;42.49;21.03;101552.77;107105;1259;110124;-68
2023/08/16 10:40:59;;;;;;;8.30;2.90;;;;;;;42.83;20.76;101554.48;107034;1259;106866;-67
2023/08/16 10:43:50;;;;;;;5.40;2.20;;;;;;;43.30;20.18;101549.75;106998;1258;96474;-68
2023/08/16 10:46:30;;;;;;;6.40;2.10;;;;;;;43.71;19.96;101542.62;107025;1257;96484;-67
2023/08/16 10:49:00;;;;;;;5.60;2.10;;;;;;;44.13;19.56;101539.94;107090;1258;109772;-68
2023/08/16 10:51:30;;;;;;;6.80;1.90;;;;;;;44.59;19.39;101538.58;107052;1258;107658;-69
2023/08/16 10:53:59;;;;;;;10.10;2.20;;;;;;;44.81;18.26;101532.48;107071;1257;107528;-67
2023/08/16 10:56:44;;;;;;;10.40;2.10;;;;;;;44.85;18.41;101528.46;107055;1259;96495;-68
2023/08/16 10:59:13;;;;;;;4.60;1.70;;;;;;;44.64;18.41;101522.39;107030;1257;97338;-68
2023/08/16 11:01:49;;;;;;;9.60;2.00;;;;;;;44.42;18.29;101521.30;107032;1261;110567;-69
2023/08/16 11:04:17;;;;;;;4.30;1.80;;;;;;;44.08;18.10;101517.70;107106;1257;108663;-69
2023/08/16 11:06:46;;;;;;;7.10;2.90;;;;;;;44.14;18.45;101515.92;106987;1257;108667;-69
2023/08/16 11:09:29;;;;;;;9.60;1.80;;;;;;;44.29;18.45;101514.90;106988;1259;96525;-68
2023/08/16 11:12:03;;;;;;;8.00;1.90;;;;;;;44.61;18.05;101517.16;107067;1257;96371;-69
2023/08/16 11:14:33;;;;;;;3.10;2.00;;;;;;;44.67;17.72;101516.52;107116;1257;110135;-69
2023/08/16 11:17:03;;;;;;;4.10;2.00;;;;;;;44.56;18.30;101513.52;107029;1261;109072;-69